Time;durP1;ratioP1;P1;durP2;ratioP2;P2;SDS_P1;SDS_P2;PMS_P1;PMS_P2;Temp;Humidity;BMP_temperature;BMP_pressure;BME280_temperature;BME280_humidity;BME280_pressure;Samples;Min_cycle;Max_cycle;Signal;HPM_P1;HPM_P2
2024/04/10 00:01:37;;;;;;;4.50;1.02;;;;;;;;;;5407597;26;20015;-68
2024/04/10 00:04:03;;;;;;;6.22;1.25;;;;;;;;;;5428051;26;20003;-68
2024/04/10 00:06:29;;;;;;;2.35;0.77;;;;;;;;;;5402106;26;20003;-68
2024/04/10 00:08:55;;;;;;;5.70;0.98;;;;;;;;;;5407423;26;19996;-68
2024/04/10 00:11:24;;;;;;;2.30;0.65;;;;;;;;;;5422144;26;19999;-68
2024/04/10 00:13:50;;;;;;;2.20;0.60;;;;;;;;;;5432291;26;19999;-68
2024/04/10 00:16:16;;;;;;;5.15;0.85;;;;;;;;;;5406347;26;20010;-68
2024/04/10 00:18:44;;;;;;;1.67;1.00;;;;;;;;;;5424292;26;20329;-68
2024/04/10 00:21:10;;;;;;;3.15;1.00;;;;;;;;;;5429121;26;19995;-68
2024/04/10 00:23:36;;;;;;;6.68;1.25;;;;;;;;;;5411563;26;20341;-68
2024/04/10 00:26:04;;;;;;;4.75;0.90;;;;;;;;;;5417428;26;19995;-68
2024/04/10 00:28:31;;;;;;;3.70;0.73;;;;;;;;;;5421196;26;20024;-67
2024/04/10 00:30:57;;;;;;;5.30;1.17;;;;;;;;;;5420233;26;20011;-68
2024/04/10 00:33:23;;;;;;;3.28;0.90;;;;;;;;;;5416936;26;20638;-68
2024/04/10 00:35:59;;;;;;;4.32;1.00;;;;;;;;;;5425396;26;20007;-68
2024/04/10 00:38:29;;;;;;;3.92;1.13;;;;;;;;;;5422510;26;20007;-68
2024/04/10 00:40:59;;;;;;;2.83;1.08;;;;;;;;;;5395082;26;20001;-68
2024/04/10 00:43:25;;;;;;;3.40;1.13;;;;;;;;;;5392109;26;19999;-68
2024/04/10 00:46:02;;;;;;;6.25;1.17;;;;;;;;;;5392788;26;20019;-68
2024/04/10 00:48:28;;;;;;;4.97;0.95;;;;;;;;;;5393078;26;20073;-68
2024/04/10 00:50:55;;;;;;;2.83;0.93;;;;;;;;;;5406815;26;20037;-68
2024/04/10 00:53:21;;;;;;;3.63;1.25;;;;;;;;;;5412559;26;19999;-68
2024/04/10 00:55:48;;;;;;;2.70;0.98;;;;;;;;;;5392368;26;20019;-68
2024/04/10 00:58:14;;;;;;;3.53;1.00;;;8.60;99.90;;;;;;5399136;26;20476;-68
2024/04/10 01:00:40;;;;;;;4.53;1.10;;;8.50;99.90;;;;;;5389885;26;19996;-68
2024/04/10 01:03:09;;;;;;;2.70;1.00;;;;;;;;;;5415985;26;20000;-68
2024/04/10 01:05:34;;;;;;;5.65;0.82;;;8.00;99.90;;;;;;5399894;26;20023;-68
2024/04/10 01:08:02;;;;;;;6.22;1.10;;;8.20;99.90;;;;;;5405625;26;20031;-68
2024/04/10 01:10:28;;;;;;;7.07;1.10;;;8.10;99.90;;;;;;5390798;26;20711;-68
2024/04/10 01:12:55;;;;;;;8.75;0.98;;;7.80;99.90;;;;;;5415225;26;19999;-68
2024/04/10 01:15:20;;;;;;;6.63;1.80;;;8.00;99.90;;;;;;5403300;26;20007;-68
2024/04/10 01:17:46;;;;;;;5.97;1.70;;;7.90;99.90;;;;;;5408647;26;19991;-68
2024/04/10 01:20:12;;;;;;;9.25;1.10;;;7.90;99.90;;;;;;5405537;26;20004;-68
2024/04/10 01:22:37;;;;;;;4.90;1.05;;;7.80;99.90;;;;;;5404594;26;19996;-68
2024/04/10 01:25:03;;;;;;;2.78;1.00;;;7.80;99.90;;;;;;5388256;26;20461;-68
2024/04/10 01:27:30;;;;;;;5.00;1.38;;;7.70;99.90;;;;;;5399373;26;20014;-68
2024/04/10 01:29:56;;;;;;;1.67;0.90;;;7.60;99.90;;;;;;5410328;26;20049;-68
2024/04/10 01:32:22;;;;;;;2.70;0.95;;;7.60;99.90;;;;;;5388172;26;20000;-68
2024/04/10 01:34:47;;;;;;;3.85;1.40;;;7.60;99.90;;;;;;5392258;26;20006;-68
2024/04/10 01:37:13;;;;;;;2.60;1.05;;;;;;;;;;5405399;26;20341;-68
2024/04/10 01:39:39;;;;;;;3.80;0.98;;;;;;;;;;5415610;26;20000;-68
2024/04/10 01:42:05;;;;;;;2.85;1.05;;;;;;;;;;5395261;26;20511;-68
2024/04/10 01:44:31;;;;;;;3.53;1.30;;;7.50;99.90;;;;;;5408927;26;20078;-68
2024/04/10 01:46:57;;;;;;;4.60;1.17;;;7.40;99.90;;;;;;5392395;26;20007;-67
2024/04/10 01:49:22;;;;;;;4.05;1.20;;;7.30;99.90;;;;;;5406485;26;20010;-67
2024/04/10 01:51:48;;;;;;;5.57;1.25;;;7.30;99.90;;;;;;5404998;26;20010;-68
2024/04/10 01:54:14;;;;;;;4.28;1.20;;;7.20;99.90;;;;;;5404166;26;20019;-68
2024/04/10 01:56:39;;;;;;;7.03;1.30;;;7.20;99.90;;;;;;5405311;26;20395;-67
2024/04/10 01:59:06;;;;;;;3.25;1.08;;;7.20;99.90;;;;;;5396629;26;20007;-68
2024/04/10 02:01:32;;;;;;;2.50;1.15;;;7.20;99.90;;;;;;5389642;26;19995;-68
2024/04/10 02:03:57;;;;;;;3.05;1.08;;;7.20;99.90;;;;;;5408703;26;20452;-68
2024/04/10 02:06:23;;;;;;;6.85;1.20;;;7.20;99.90;;;;;;5409724;26;20020;-68
2024/04/10 02:08:49;;;;;;;3.75;1.27;;;7.10;99.90;;;;;;5412621;26;20009;-68
2024/04/10 02:11:26;;;;;;;1.83;1.08;;;7.20;99.90;;;;;;5398351;26;20376;-68
2024/04/10 02:13:52;;;;;;;3.63;1.30;;;7.20;99.90;;;;;;5408439;26;20509;-68
2024/04/10 02:16:22;;;;;;;2.92;0.82;;;7.10;99.90;;;;;;5411934;26;19995;-68
2024/04/10 02:18:47;;;;;;;4.47;1.15;;;7.10;99.90;;;;;;5407005;26;20014;-68
2024/04/10 02:21:13;;;;;;;4.20;1.00;;;7.10;99.90;;;;;;5398468;26;20004;-69
2024/04/10 02:23:39;;;;;;;3.78;1.23;;;7.10;99.90;;;;;;5405482;26;20003;-68
2024/04/10 02:26:12;;;;;;;6.57;1.17;;;7.10;99.90;;;;;;5395735;26;20014;-68
2024/04/10 02:28:38;;;;;;;3.97;1.38;;;7.00;99.90;;;;;;5387692;26;20046;-68
2024/04/10 02:31:04;;;;;;;3.67;0.82;;;7.00;99.90;;;;;;5415068;26;20410;-68
2024/04/10 02:33:34;;;;;;;2.70;1.02;;;7.00;99.90;;;;;;5406853;26;20353;-68
2024/04/10 02:36:00;;;;;;;4.75;1.00;;;7.00;99.90;;;;;;5411650;26;19999;-68
2024/04/10 02:38:30;;;;;;;3.97;1.10;;;7.00;99.90;;;;;;5388278;26;20019;-68
2024/04/10 02:40:56;;;;;;;;;;;7.00;99.90;;;;;;5399790;26;20027;-68
2024/04/10 02:43:22;;;;;;;3.17;1.20;;;7.10;99.90;;;;;;5411050;26;20214;-68
2024/04/10 02:46:17;;;;;;;4.25;1.02;;;7.10;99.90;;;;;;5407807;26;20031;-68
2024/04/10 02:48:45;;;;;;;4.00;0.93;;;7.10;99.90;;;;;;5386974;26;20003;-68
2024/04/10 02:51:11;;;;;;;3.65;0.90;;;7.20;99.90;;;;;;5406560;26;20359;-68
2024/04/10 02:53:37;;;;;;;4.03;0.90;;;7.10;99.90;;;;;;5410547;26;20441;-68
2024/04/10 02:56:04;;;;;;;3.63;1.30;;;7.00;99.90;;;;;;5398088;26;20006;-68
2024/04/10 02:58:30;;;;;;;4.20;1.52;;;7.00;99.90;;;;;;5409105;26;20000;-69
2024/04/10 03:00:56;;;;;;;4.22;1.20;;;7.00;99.90;;;;;;5394060;26;20011;-68
2024/04/10 03:03:23;;;;;;;6.30;1.48;;;6.90;99.90;;;;;;5401273;26;20081;-68
2024/04/10 03:06:05;;;;;;;4.50;1.13;;;6.90;99.90;;;;;;5411014;26;20000;-68
2024/04/10 03:08:36;;;;;;;4.78;1.48;;;6.80;99.90;;;;;;5385924;26;20015;-68
2024/04/10 03:11:02;;;;;;;2.47;1.30;;;6.80;99.90;;;;;;5394418;26;20073;-68
2024/04/10 03:13:28;;;;;;;4.55;1.25;;;6.70;99.90;;;;;;5412220;26;20010;-68
2024/04/10 03:15:54;;;;;;;4.07;1.10;;;6.70;99.90;;;;;;5390280;26;20004;-68
2024/04/10 03:18:20;;;;;;;3.45;1.40;;;6.70;99.90;;;;;;5393770;26;19996;-68
2024/04/10 03:20:46;;;;;;;5.13;1.30;;;6.60;99.90;;;;;;5404642;26;20018;-68
2024/04/10 03:23:12;;;;;;;2.97;1.30;;;6.60;99.90;;;;;;5411957;26;20072;-68
2024/04/10 03:25:38;;;;;;;3.00;1.20;;;6.50;99.90;;;;;;5394743;26;20008;-68
2024/04/10 03:28:04;;;;;;;3.75;1.23;;;6.50;99.90;;;;;;5401852;26;20011;-68
2024/04/10 03:30:29;;;;;;;6.28;1.27;;;6.50;99.90;;;;;;5410625;26;20337;-68
2024/04/10 03:32:55;;;;;;;4.93;1.10;;;6.40;99.90;;;;;;5402391;26;20000;-68
2024/04/10 03:35:21;;;;;;;2.67;1.10;;;6.40;99.90;;;;;;5389234;26;20032;-68
2024/04/10 03:37:47;;;;;;;2.88;0.98;;;;;;;;;;5404189;26;20433;-68
2024/04/10 03:40:13;;;;;;;4.75;0.82;;;;;;;;;;5408468;26;20007;-68
2024/04/10 03:42:39;;;;;;;2.22;0.90;;;;;;;;;;5384797;26;20026;-68
2024/04/10 03:45:06;;;;;;;4.25;1.08;;;;;;;;;;5402985;26;19996;-69
2024/04/10 03:47:32;;;;;;;4.15;1.20;;;;;;;;;;5407178;26;20000;-69
2024/04/10 03:49:58;;;;;;;4.43;1.00;;;;;;;;;;5412361;26;20000;-68
2024/04/10 03:52:24;;;;;;;4.47;1.23;;;;;;;;;;5389382;26;20011;-68
2024/04/10 03:54:50;;;;;;;6.63;1.63;;;;;;;;;;5394406;26;20544;-68
2024/04/10 03:57:16;;;;;;;5.88;1.15;;;;;;;;;;5408796;26;20039;-68
2024/04/10 03:59:42;;;;;;;5.20;1.35;;;;;;;;;;5408683;26;20395;-68
2024/04/10 04:02:08;;;;;;;5.80;1.15;;;;;;;;;;5401331;26;20003;-68
2024/04/10 04:04:34;;;;;;;6.72;1.65;;;;;;;;;;5398370;26;20016;-69
2024/04/10 04:07:00;;;;;;;5.72;1.00;;;;;;;;;;5400780;26;20012;-69
2024/04/10 04:09:26;;;;;;;5.45;1.27;;;;;;;;;;5384525;26;20000;-69
2024/04/10 04:11:52;;;;;;;3.05;1.05;;;;;;;;;;5401156;26;20453;-69
2024/04/10 04:14:18;;;;;;;6.18;1.58;;;;;;;;;;5406310;26;20003;-68
2024/04/10 04:16:44;;;;;;;5.15;1.50;;;;;;;;;;5407630;26;20077;-68
2024/04/10 04:19:10;;;;;;;5.05;1.30;;;;;;;;;;5392412;26;19996;-68
2024/04/10 04:21:36;;;;;;;2.95;1.05;;;;;;;;;;5409433;26;19996;-68
2024/04/10 04:24:02;;;;;;;5.55;1.33;;;;;;;;;;5414473;26;20000;-68
2024/04/10 04:26:28;;;;;;;3.15;1.00;;;;;;;;;;5397615;26;20334;-68
2024/04/10 04:28:54;;;;;;;4.93;1.25;;;;;;;;;;5395789;26;20000;-68
2024/04/10 04:31:21;;;;;;;4.60;1.58;;;;;;;;;;5388110;26;20000;-68
2024/04/10 04:33:47;;;;;;;5.57;1.10;;;;;;;;;;5406207;26;20002;-68
2024/04/10 04:36:14;;;;;;;7.68;1.42;;;;;;;;;;5409744;26;20401;-67
2024/04/10 04:38:41;;;;;;;5.18;1.38;;;;;;;;;;5386890;26;20523;-67
2024/04/10 04:41:07;;;;;;;4.78;1.02;;;;;;;;;;5393279;26;20040;-69
2024/04/10 04:43:33;;;;;;;5.35;1.25;;;;;;;;;;5400715;26;20004;-68
2024/04/10 04:46:00;;;;;;;5.47;1.20;;;;;;;;;;5401798;26;20023;-68
2024/04/10 04:48:26;;;;;;;4.70;1.25;;;;;;;;;;5410322;26;20047;-69
2024/04/10 04:50:53;;;;;;;5.68;1.48;;;;;;;;;;5410390;26;20010;-68
2024/04/10 04:53:19;;;;;;;7.93;1.08;;;;;;;;;;5408713;26;20348;-68
2024/04/10 04:55:45;;;;;;;7.82;1.30;;;;;;;;;;5397769;26;20003;-68
2024/04/10 04:58:12;;;;;;;7.70;1.33;;;;;;;;;;5401385;26;19996;-68
2024/04/10 05:00:39;;;;;;;5.25;1.60;;;;;;;;;;5409174;26;20014;-68
2024/04/10 05:03:06;;;;;;;3.10;0.95;;;;;;;;;;5401562;26;20011;-68
2024/04/10 05:05:33;;;;;;;4.72;1.25;;;;;;;;;;5405970;26;20471;-69
2024/04/10 05:07:59;;;;;;;5.55;1.48;;;;;;;;;;5397658;26;19996;-69
2024/04/10 05:10:25;;;;;;;7.75;1.77;;;;;;;;;;5408653;26;20010;-68
2024/04/10 05:12:51;;;;;;;10.15;1.60;;;;;;;;;;5414414;26;20398;-69
2024/04/10 05:15:17;;;;;;;8.45;1.40;;;;;;;;;;5396576;26;20009;-68
2024/04/10 05:17:44;;;;;;;8.60;1.40;;;;;;;;;;5413893;26;19997;-69
2024/04/10 05:20:12;;;;;;;6.25;1.77;;;;;;;;;;5407432;26;20015;-69
2024/04/10 05:22:44;;;;;;;6.97;1.42;;;;;;;;;;5388415;26;20033;-69
2024/04/10 05:25:11;;;;;;;5.88;1.20;;;;;;;;;;5385887;26;20005;-69
2024/04/10 05:27:37;;;;;;;9.18;1.40;;;;;;;;;;5413634;26;20006;-69
2024/04/10 05:30:07;;;;;;;6.95;1.55;;;;;;;;;;5391817;26;20324;-69
2024/04/10 05:32:43;;;;;;;5.47;1.10;;;;;;;;;;5378463;26;20015;-69
2024/04/10 05:35:15;;;;;;;5.97;1.35;;;;;;;;;;5392922;26;20039;-68
2024/04/10 05:37:41;;;;;;;6.60;1.48;;;;;;;;;;5404847;26;20007;-68
2024/04/10 05:40:16;;;;;;;4.63;1.63;;;;;;;;;;5412031;26;20035;-68
2024/04/10 05:42:43;;;;;;;7.00;1.40;;;;;;;;;;5404281;26;20010;-68
2024/04/10 05:45:09;;;;;;;6.00;1.38;;;;;;;;;;5410875;26;20011;-68
2024/04/10 05:47:36;;;;;;;8.53;1.40;;;;;;;;;;5414150;26;20328;-68
2024/04/10 05:50:02;;;;;;;3.88;1.38;;;;;;;;;;5413810;26;20750;-68
2024/04/10 05:52:28;;;;;;;7.32;1.30;;;;;;;;;;5408783;26;20088;-69
2024/04/10 05:54:54;;;;;;;5.90;1.52;;;;;;;;;;5390300;26;20230;-68
2024/04/10 05:57:24;;;;;;;7.05;1.50;;;;;;;;;;5413400;26;20075;-69
2024/04/10 05:59:54;;;;;;;10.95;2.00;;;;;;;;;;5391266;26;20444;-68
2024/04/10 06:02:21;;;;;;;8.02;1.33;;;;;;;;;;5388425;26;20563;-68
2024/04/10 06:04:47;;;;;;;7.10;1.42;;;;;;;;;;5406169;26;20074;-69
2024/04/10 06:07:13;;;;;;;7.00;1.30;;;;;;;;;;5397412;26;20011;-68
2024/04/10 06:09:39;;;;;;;3.22;1.40;;;;;;;;;;5407096;26;19999;-69
2024/04/10 06:12:05;;;;;;;5.60;1.38;;;;;;;;;;5409750;26;20465;-69
2024/04/10 06:14:31;;;;;;;12.25;2.13;;;;;;;;;;5384133;26;20007;-69
2024/04/10 06:16:56;;;;;;;3.88;1.27;;;8.60;99.90;;;;;;5384570;26;20018;-68
2024/04/10 06:19:22;;;;;;;7.25;1.33;;;8.50;99.90;;;;;;5386005;26;19999;-68
2024/04/10 06:21:48;;;;;;;5.78;1.60;;;8.40;99.90;;;;;;5390089;26;20069;-69
2024/04/10 06:24:15;;;;;;;5.28;1.30;;;8.40;99.90;;;;;;5397792;26;20015;-68
2024/04/10 06:26:41;;;;;;;9.25;1.48;;;8.30;99.90;;;;;;5394115;26;20039;-68
2024/04/10 06:29:07;;;;;;;5.35;1.77;;;8.30;99.90;;;;;;5390982;26;20007;-68
2024/04/10 06:31:33;;;;;;;4.28;1.42;;;8.30;99.90;;;;;;5385512;26;20000;-68
2024/04/10 06:33:58;;;;;;;9.40;1.70;;;8.30;99.90;;;;;;5404709;26;20065;-68
2024/04/10 06:36:24;;;;;;;8.43;1.42;;;8.40;99.90;;;;;;5409054;26;20466;-68
2024/04/10 06:38:49;;;;;;;6.97;1.60;;;8.40;99.90;;;;;;5385877;26;20004;-68
2024/04/10 06:41:15;;;;;;;7.22;1.42;;;8.50;99.90;;;;;;5404635;26;20015;-68
2024/04/10 06:43:41;;;;;;;5.65;1.60;;;8.60;99.90;;;;;;5395423;26;20040;-68
2024/04/10 06:46:09;;;;;;;8.18;1.92;;;8.60;99.90;;;;;;5396243;26;20072;-68
2024/04/10 06:48:35;;;;;;;6.50;1.27;;;8.80;99.90;;;;;;5397259;26;20424;-68
2024/04/10 06:51:05;;;;;;;9.05;1.67;;;8.80;99.90;;;;;;5402133;26;20000;-68
2024/04/10 06:53:30;;;;;;;15.23;2.00;;;8.80;99.90;;;;;;5407839;26;20004;-69
2024/04/10 06:55:58;;;;;;;10.30;1.83;;;8.90;99.90;;;;;;5406191;26;20078;-70
2024/04/10 06:58:25;;;;;;;9.45;2.05;;;9.00;99.90;;;;;;5382506;26;20036;-70
2024/04/10 07:00:55;;;;;;;11.02;2.55;;;9.00;99.90;;;;;;5389371;26;20069;-70
2024/04/10 07:03:21;;;;;;;10.57;1.50;;;9.10;99.90;;;;;;5404761;26;20065;-69
2024/04/10 07:05:48;;;;;;;11.90;1.77;;;9.20;99.90;;;;;;5404317;26;20104;-67
2024/04/10 07:08:14;;;;;;;9.57;1.88;;;9.20;99.90;;;;;;5396877;26;20007;-68
2024/04/10 07:10:40;;;;;;;12.80;1.85;;;9.30;99.90;;;;;;5403624;26;20004;-68
2024/04/10 07:13:05;;;;;;;13.38;1.67;;;9.30;99.90;;;;;;5405035;26;20072;-68
2024/04/10 07:15:32;;;;;;;16.67;2.08;;;9.40;99.90;;;;;;5410565;26;20029;-68
2024/04/10 07:17:57;;;;;;;12.55;1.80;;;9.40;99.90;;;;;;5396188;26;19995;-68
2024/04/10 07:20:23;;;;;;;15.00;1.90;;;9.40;99.90;;;;;;5390479;26;19999;-68
2024/04/10 07:22:48;;;;;;;15.55;2.05;;;9.40;99.90;;;;;;5391805;26;20007;-67
2024/04/10 07:25:14;;;;;;;8.15;1.63;;;9.40;99.90;;;;;;5391876;26;20000;-69
2024/04/10 07:27:40;;;;;;;13.55;2.13;;;9.60;99.90;;;;;;5390756;26;20316;-68
2024/04/10 07:30:08;;;;;;;11.05;1.92;;;9.60;99.90;;;;;;5407503;26;19995;-69
2024/04/10 07:32:33;;;;;;;12.63;2.25;;;9.60;99.90;;;;;;5395619;26;20000;-69
2024/04/10 07:34:59;;;;;;;13.15;2.38;;;9.70;99.90;;;;;;5391874;26;20076;-69
2024/04/10 07:37:24;;;;;;;13.00;1.95;;;9.80;99.90;;;;;;5417386;26;20009;-69
2024/04/10 07:39:50;;;;;;;13.77;2.38;;;9.80;99.90;;;;;;5422425;26;20080;-69
2024/04/10 07:42:15;;;;;;;14.80;2.63;;;9.80;99.90;;;;;;5396075;26;20027;-69
2024/04/10 07:44:41;;;;;;;11.10;1.85;;;9.80;99.90;;;;;;5402571;26;19996;-70
2024/04/10 07:47:07;;;;;;;20.67;2.30;;;9.80;99.90;;;;;;5389471;26;20090;-69
2024/04/10 07:49:33;;;;;;;13.77;2.53;;;9.80;99.90;;;;;;5392970;26;20018;-69
2024/04/10 07:52:00;;;;;;;16.80;2.65;;;9.90;99.90;;;;;;5401092;26;20001;-69
2024/04/10 07:54:28;;;;;;;13.35;1.95;;;9.90;99.90;;;;;;5416015;26;20014;-69
2024/04/10 07:56:54;;;;;;;15.30;2.20;;;10.00;99.90;;;;;;5391881;26;20020;-69
2024/04/10 07:59:20;;;;;;;14.57;2.05;;;10.00;99.90;;;;;;5388076;26;20011;-69
2024/04/10 08:01:46;;;;;;;15.65;2.05;;;10.00;99.90;;;;;;5406464;26;20457;-69
2024/04/10 08:04:11;;;;;;;11.50;1.80;;;10.00;99.90;;;;;;5398554;26;20460;-69
2024/04/10 08:06:37;;;;;;;17.67;2.67;;;10.00;99.90;;;;;;5391380;26;19997;-69
2024/04/10 08:09:03;;;;;;;11.15;2.88;;;10.10;99.90;;;;;;5407448;26;20000;-69
2024/04/10 08:11:29;;;;;;;15.40;2.05;;;10.10;99.90;;;;;;5410766;26;19998;-69
2024/04/10 08:13:55;;;;;;;10.38;2.30;;;10.20;99.90;;;;;;5402064;26;19999;-69
2024/04/10 08:16:20;;;;;;;9.25;2.08;;;10.20;99.90;;;;;;5410622;26;19996;-69
2024/04/10 08:18:46;;;;;;;13.38;2.20;;;10.30;99.90;;;;;;5411634;26;20465;-69
2024/04/10 08:21:13;;;;;;;20.30;2.47;;;10.40;99.90;;;;;;5392345;26;20015;-69
2024/04/10 08:23:40;;;;;;;14.90;2.08;;;10.50;99.90;;;;;;5395044;26;20003;-69
2024/04/10 08:26:16;;;;;;;13.90;2.08;;;10.50;99.90;;;;;;5398973;26;20008;-69
2024/04/10 08:28:45;;;;;;;18.77;2.60;;;10.70;99.90;;;;;;5397449;26;20046;-69
2024/04/10 08:31:15;;;;;;;14.17;2.33;;;10.70;99.90;;;;;;5406781;26;19996;-69
2024/04/10 08:33:45;;;;;;;10.23;1.80;;;10.80;99.90;;;;;;5395831;26;20028;-69
2024/04/10 08:36:12;;;;;;;13.20;2.72;;;10.80;99.90;;;;;;5393600;26;20040;-70
2024/04/10 08:38:42;;;;;;;14.45;2.50;;;10.80;99.90;;;;;;5411210;26;20010;-69
2024/04/10 08:41:15;;;;;;;17.67;2.72;;;10.90;99.90;;;;;;5392533;26;20530;-69
2024/04/10 08:43:43;;;;;;;12.70;2.05;;;10.90;99.90;;;;;;5393883;26;20014;-69
2024/04/10 08:46:09;;;;;;;12.88;1.90;;;11.00;99.90;;;;;;5398088;26;20081;-69
2024/04/10 08:48:37;;;;;;;9.82;2.15;;;10.80;99.90;;;;;;5413344;26;20011;-69
2024/04/10 08:51:06;;;;;;;16.85;2.67;;;10.80;99.90;;;;;;5414257;26;20011;-69
2024/04/10 08:53:35;;;;;;;10.15;1.80;;;10.80;99.90;;;;;;5397464;26;19995;-69
2024/04/10 08:56:01;;;;;;;13.52;2.58;;;10.80;99.90;;;;;;5398818;26;20012;-69
2024/04/10 08:58:27;;;;;;;9.55;1.92;;;10.90;99.90;;;;;;5377514;26;20003;-69
2024/04/10 09:00:52;;;;;;;10.27;1.65;;;10.90;99.90;;;;;;5407089;26;20322;-70
2024/04/10 09:03:18;;;;;;;10.90;1.90;;;11.00;99.90;;;;;;5397133;26;20074;-70
2024/04/10 09:05:44;;;;;;;8.60;1.90;;;11.20;99.90;;;;;;5403846;26;20023;-69
2024/04/10 09:08:10;;;;;;;13.25;2.78;;;11.30;99.90;;;;;;5393382;26;20330;-70
2024/04/10 09:10:35;;;;;;;12.23;2.50;;;11.50;99.90;;;;;;5397377;26;20072;-69
2024/04/10 09:13:05;;;;;;;8.77;1.58;;;11.70;99.90;;;;;;5406006;26;20004;-70
2024/04/10 09:15:32;;;;;;;;;;;11.90;99.60;;;;;;5408181;26;20019;-69
2024/04/10 09:17:58;;;;;;;11.65;2.08;;;12.10;99.20;;;;;;5394062;26;19933;-70
2024/04/10 09:20:23;;;;;;;13.52;2.05;;;12.10;98.90;;;;;;5397230;26;19995;-69
2024/04/10 09:23:06;;;;;;;7.63;1.70;;;12.10;98.90;;;;;;5393635;26;20453;-70
2024/04/10 09:25:33;;;;;;;14.57;2.35;;;12.00;98.60;;;;;;5405925;26;20039;-70
2024/04/10 09:28:03;;;;;;;6.22;1.80;;;12.10;98.60;;;;;;5406452;26;20444;-70
2024/04/10 09:30:33;;;;;;;14.18;1.73;;;12.00;98.90;;;;;;5379090;26;20007;-70
2024/04/10 09:33:03;;;;;;;9.40;1.77;;;12.00;97.90;;;;;;5371232;26;20011;-70
2024/04/10 09:35:29;;;;;;;7.80;1.95;;;11.80;97.00;;;;;;5400707;26;20341;-70
2024/04/10 09:38:00;;;;;;;7.85;1.90;;;11.60;97.30;;;;;;5409223;26;19999;-69
2024/04/10 09:40:27;;;;;;;7.93;2.10;;;11.50;97.90;;;;;;5399868;26;20000;-70
2024/04/10 09:43:10;;;;;;;12.38;2.17;;;11.40;98.30;;;;;;5401511;26;20003;-70
2024/04/10 09:45:37;;;;;;;15.00;2.13;;;11.70;97.90;;;;;;5401940;26;20008;-70
2024/04/10 09:48:08;;;;;;;13.68;2.10;;;12.10;97.80;;;;;;5391280;26;20072;-69
2024/04/10 09:50:38;;;;;;;10.85;1.85;;;12.60;97.50;;;;;;5399549;26;20004;-70
2024/04/10 09:53:05;;;;;;;16.08;2.20;;;12.80;96.60;;;;;;5400881;26;20015;-70
2024/04/10 09:55:33;;;;;;;11.50;1.73;;;13.10;96.30;;;;;;5404092;26;20344;-70
2024/04/10 09:58:03;;;;;;;9.05;1.60;;;13.30;94.70;;;;;;5382903;26;20447;-70
2024/04/10 10:00:30;;;;;;;4.35;1.38;;;13.30;93.20;;;;;;5395717;26;19999;-70
2024/04/10 10:03:02;;;;;;;10.27;2.58;;;13.40;93.70;;;;;;5409845;26;20003;-70
2024/04/10 10:05:28;;;;;;;9.70;1.92;;;13.70;93.40;;;;;;5408777;26;20100;-69
2024/04/10 10:08:03;;;;;;;9.90;2.08;;;13.90;93.40;;;;;;5384330;26;20334;-69
2024/04/10 10:10:29;;;;;;;4.88;1.38;;;14.00;92.10;;;;;;5393799;26;20004;-69
2024/04/10 10:13:08;;;;;;;5.18;1.48;;;13.90;91.60;;;;;;5403540;26;20021;-69
2024/04/10 10:15:33;;;;;;;11.10;1.40;;;13.70;91.30;;;;;;5407450;26;20004;-69
2024/04/10 10:17:59;;;;;;;8.43;1.73;;;13.50;91.00;;;;;;5401739;26;20374;-70
2024/04/10 10:20:24;;;;;;;5.25;1.60;;;13.60;90.30;;;;;;5404944;26;19999;-69
2024/04/10 10:23:01;;;;;;;3.88;1.15;;;13.80;90.50;;;;;;5411595;26;20472;-70
2024/04/10 10:25:27;;;;;;;3.35;1.25;;;14.10;90.60;;;;;;5403936;26;20011;-70
2024/04/10 10:28:13;;;;;;;9.23;1.77;;;14.70;89.90;;;;;;5378656;26;20007;-70
2024/04/10 10:30:39;;;;;;;9.23;2.35;;;15.10;90.50;;;;;;5392440;26;20014;-70
2024/04/10 10:33:06;;;;;;;7.88;1.73;;;15.20;89.60;;;;;;5413747;26;19999;-70
2024/04/10 10:35:31;;;;;;;10.43;1.90;;;15.00;89.80;;;;;;5389357;26;20000;-70
2024/04/10 10:37:58;;;;;;;7.97;1.80;;;14.60;89.50;;;;;;5386250;26;20455;-70
2024/04/10 10:40:24;;;;;;;8.40;1.65;;;13.90;89.80;;;;;;5400653;26;20468;-68
2024/04/10 10:43:03;;;;;;;4.65;1.35;;;13.60;90.20;;;;;;5396257;26;20024;-69
2024/04/10 10:45:34;;;;;;;5.00;1.85;;;13.40;89.40;;;;;;5384208;26;20004;-68
2024/04/10 10:48:02;;;;;;;6.75;1.40;;;13.50;88.90;;;;;;5394150;26;20384;-68
2024/04/10 10:50:31;;;;;;;9.23;1.50;;;13.90;88.80;;;;;;5409956;26;20003;-69
2024/04/10 10:52:57;;;;;;;10.38;1.77;;;14.20;89.20;;;;;;5390303;26;19997;-69
2024/04/10 10:55:24;;;;;;;6.32;1.40;;;14.40;89.70;;;;;;5399268;26;20541;-68
2024/04/10 10:58:03;;;;;;;6.35;2.03;;;14.40;87.10;;;;;;5398237;26;20072;-68
2024/04/10 11:00:33;;;;;;;5.97;1.40;;;14.30;87.50;;;;;;5413192;26;20018;-72
2024/04/10 11:03:09;;;;;;;7.32;1.63;;;14.30;89.00;;;;;;5387368;26;20000;-72
2024/04/10 11:05:35;;;;;;;6.75;1.70;;;14.50;87.20;;;;;;5397532;26;20010;-72
2024/04/10 11:08:02;;;;;;;8.35;1.58;;;14.50;85.90;;;;;;5408320;26;20008;-74
2024/04/10 11:10:28;;;;;;;3.92;1.27;;;14.50;84.30;;;;;;5397592;26;20141;-73
2024/04/10 11:13:01;;;;;;;9.38;1.45;;;14.60;84.70;;;;;;5393236;26;20383;-69
2024/04/10 11:15:28;;;;;;;7.88;1.35;;;14.60;85.30;;;;;;5388899;26;20338;-70
2024/04/10 11:18:05;;;;;;;8.60;1.60;;;14.60;83.70;;;;;;5406495;26;20008;-69
2024/04/10 11:20:31;;;;;;;6.97;2.00;;;14.60;83.80;;;;;;5396618;26;20069;-69
2024/04/10 11:23:00;;;;;;;7.05;1.33;;;14.70;83.20;;;;;;5396049;26;20011;-68
2024/04/10 11:25:26;;;;;;;4.22;1.52;;;14.70;83.10;;;;;;5411004;26;19991;-69
2024/04/10 11:27:51;;;;;;;5.85;1.10;;;14.80;83.30;;;;;;5400466;26;20016;-68
2024/04/10 11:30:17;;;;;;;4.60;1.20;;;15.00;83.40;;;;;;5402930;26;20406;-68
2024/04/10 11:32:43;;;;;;;8.77;1.35;;;15.30;82.30;;;;;;5403100;26;20010;-68
2024/04/10 11:35:13;;;;;;;9.57;1.60;;;15.50;80.90;;;;;;5408073;26;20007;-69
2024/04/10 11:37:39;;;;;;;9.63;1.10;;;15.50;81.80;;;;;;5385340;26;20010;-68
2024/04/10 11:40:11;;;;;;;6.20;1.33;;;15.10;83.40;;;;;;5399214;26;20140;-68
2024/04/10 11:42:38;;;;;;;9.68;1.38;;;14.80;82.20;;;;;;5411064;26;19999;-68
2024/04/10 11:45:07;;;;;;;3.38;0.80;;;14.60;82.30;;;;;;5404167;26;20004;-68
2024/04/10 11:47:36;;;;;;;11.35;1.60;;;14.50;82.60;;;;;;5396903;26;20010;-68
2024/04/10 11:50:07;;;;;;;5.57;1.50;;;14.30;82.50;;;;;;5407457;26;20003;-69
2024/04/10 11:52:34;;;;;;;9.07;1.40;;;14.20;83.40;;;;;;5410230;26;20403;-69
2024/04/10 11:54:59;;;;;;;6.07;1.17;;;14.60;82.10;;;;;;5410632;26;20491;-69
2024/04/10 11:57:25;;;;;;;6.22;1.30;;;15.10;80.60;;;;;;5402609;26;20003;-69
2024/04/10 11:59:51;;;;;;;5.43;1.00;;;15.80;95.60;;;;;;5401425;26;20011;-68
2024/04/10 12:02:17;;;;;;;8.50;1.65;;;16.30;86.90;;;;;;5384049;26;20000;-69
2024/04/10 12:04:44;;;;;;;5.60;1.42;;;16.50;76.30;;;;;;5399118;26;19995;-68
2024/04/10 12:07:10;;;;;;;4.63;1.30;;;16.90;76.00;;;;;;5440353;26;20014;-69
2024/04/10 12:09:39;;;;;;;4.32;1.02;;;17.00;77.20;;;;;;5443402;26;19999;-69
2024/04/10 12:12:06;;;;;;;2.58;1.20;;;17.30;75.20;;;;;;5426481;26;19999;-69
2024/04/10 12:14:31;;;;;;;6.65;1.65;;;17.80;75.10;;;;;;5446726;26;20006;-69
2024/04/10 12:16:58;;;;;;;5.43;1.05;;;18.30;73.70;;;;;;5447166;26;19998;-69
2024/04/10 12:19:23;;;;;;;4.38;1.00;;;18.90;72.60;;;;;;5426247;26;19999;-69
2024/04/10 12:21:49;;;;;;;4.72;1.38;;;19.30;71.50;;;;;;5430126;26;20068;-70
2024/04/10 12:24:14;;;;;;;10.40;1.45;;;19.70;74.90;;;;;;5446044;26;20009;-69
2024/04/10 12:26:40;;;;;;;3.28;0.95;;;20.00;69.50;;;;;;5433411;26;20461;-73
2024/04/10 12:29:05;;;;;;;5.63;1.38;;;20.10;69.30;;;;;;5423800;26;19996;-71
2024/04/10 12:31:31;;;;;;;8.88;2.00;;;20.50;71.60;;;;;;5436957;26;20398;-79
2024/04/10 12:33:57;;;;;;;6.80;1.38;;;19.70;71.40;;;;;;5420134;26;20003;-72
2024/04/10 12:39:08;;;;;;;6.03;1.88;;;17.80;90.00;;;;;;5447164;26;20010;-73
2024/04/10 12:41:34;;;;;;;8.27;1.42;;;17.60;90.60;;;;;;5444145;26;20072;-72
2024/04/10 12:44:02;;;;;;;6.75;1.40;;;18.50;88.20;;;;;;5442461;26;20015;-67
2024/04/10 12:46:30;;;;;;;8.45;1.80;;;19.00;86.30;;;;;;5437057;26;20038;-69
2024/04/10 12:48:55;;;;;;;9.18;1.58;;;19.70;85.50;;;;;;5450493;26;20014;-69
2024/04/10 12:51:21;;;;;;;3.05;1.38;;;20.00;77.50;;;;;;5449993;26;19998;-69
2024/04/10 12:53:47;;;;;;;7.65;1.55;;;20.30;70.80;;;;;;5426222;26;20007;-69
2024/04/10 12:56:12;;;;;;;6.97;1.52;;;19.70;68.10;;;;;;5435605;26;20000;-69
2024/04/10 12:58:40;;;;;;;4.45;1.58;;;18.90;69.10;;;;;;5423152;26;20007;-68
2024/04/10 13:01:06;;;;;;;5.22;1.25;;;18.30;70.60;;;;;;5429444;26;19997;-69
2024/04/10 13:03:33;;;;;;;3.75;1.20;;;16.10;89.30;;;;;;5444917;26;20072;-68
2024/04/10 13:05:59;;;;;;;6.38;1.40;;;17.00;90.50;;;;;;5441623;26;20045;-68
2024/04/10 13:08:28;;;;;;;5.20;1.50;;;17.30;89.80;;;;;;5449526;26;20444;-68
2024/04/10 13:11:09;;;;;;;4.95;1.25;;;17.90;88.60;;;;;;5421148;26;20042;-68
2024/04/10 13:13:35;;;;;;;9.07;1.58;;;18.50;86.10;;;;;;5438687;26;20326;-69
2024/04/10 13:16:01;;;;;;;4.75;1.23;;;18.90;84.50;;;;;;5437992;26;20022;-69
2024/04/10 13:18:28;;;;;;;4.78;1.05;;;19.10;84.00;;;;;;5420116;26;20010;-69
2024/04/10 13:20:54;;;;;;;5.93;1.30;;;19.40;82.20;;;;;;5438010;26;20079;-68